Atlantic Companion — SKPE — position and weather

sailwx.info

Track history (hours):
 
Tides and Currents Weather Stations Pressure Air Temp Water Temp Dewpoint Dewpoint Depression Visibility Wind Speed Wind Dir Waves Ship Positions

Atlantic Companion

Last reported at 2014-Sep-16 14:30 UTC. Time now 2014-Sep-16 17:32 UTC.
Position N 51°46' W 005°57'.

Length 292 m; beam 32.3 m; draft 11.6 m.

Type: Cargo ship. MMSI: 265142000.

Date/timePositionNaut miles runAvg speedWind from/ knotsBaromVisibWave heightAir tempDewpointWater temp
2014-Sep-16 14:30N 51°46' W 005°57'4615.8
2014-Sep-16 11:33N 52°29' W 005°31'8415.8
2014-Sep-16 06:14N 53°33' W 004°00'1217.7
2014-Sep-16 05:33N 53°33' W 003°40'1615.9
2014-Sep-16 04:33N 53°31' W 003°14'8 8.5
2014-Sep-16 03:33N 53°27' W 003°01'1 0.4
2014-Sep-16 02:08N 53°28' W 003°01'0 0.0
2014-Sep-16 01:14N 53°28' W 003°01'0 0.0
2014-Sep-16 00:32N 53°28' W 003°01'0 0.0
2014-Sep-15 23:32N 53°28' W 003°01'0 0.0
2014-Sep-15 22:32N 53°28' W 003°01'0 0.0
2014-Sep-15 21:20N 53°28' W 003°01'0 0.0
2014-Sep-15 20:26N 53°28' W 003°01'0 0.0
2014-Sep-15 19:11N 53°28' W 003°01'0 0.0
2014-Sep-15 18:26N 53°28' W 003°01'0 0.0
2014-Sep-15 17:26N 53°28' W 003°01'0 0.0
2014-Sep-15 16:08N 53°28' W 003°01'0 0.0
2014-Sep-15 15:32N 53°28' W 003°01'0 0.0
2014-Sep-15 14:33N 53°28' W 003°01'1 0.6
2014-Sep-15 13:33N 53°27' W 003°01'1 1.0
2014-Sep-15 12:33N 53°27' W 003°03'1010.4
2014-Sep-15 11:33N 53°31' W 003°19'1717.1
2014-Sep-15 10:33N 53°30' W 003°47'61 8.6
2014-Sep-15 03:31N 54°11' W 005°03'1414.2
2014-Sep-15 02:34N 54°24' W 005°09'1514.7
2014-Sep-15 01:34N 54°39' W 005°15'1515.5
2014-Sep-15 00:34N 54°51' W 005°30'1615.7
2014-Sep-14 23:33N 55°04' W 005°46'1616.4
2014-Sep-14 22:33N 55°18' W 006°02'1514.7
2014-Sep-14 21:34N 55°23' W 006°26'1414.4
2014-Sep-14 20:33N 55°27' W 006°51'21014.4
2014-Sep-14 06:00N 55°24' W 013°00'69016.4 110 / 151021.4 2.2 0.515.0 13.8
2014-Sep-12 12:00N 53°06' W 032°18'10116.8 360 / 81020.8 5.4 2.011.9 10.9
2014-Sep-12 06:00N 52°30' W 034°54'41217.2 310 / 111021.6 11.0 11.0
2014-Sep-11 06:00N 49°36' W 044°48'31317.4 220 / 161024.7 2.2 12.3 12.0
2014-Sep-10 12:00N 46°54' W 051°30'49217.3 160 / 81028.210.8 1.515.3 13.0
2014-Sep-09 07:33N 44°30' W 062°43'1817.1
2014-Sep-09 06:31N 44°25' W 063°07'1515.8
2014-Sep-09 05:34N 44°26' W 063°28'1413.7
2014-Sep-09 04:33N 44°39' W 063°34'3 3.0
2014-Sep-09 03:33N 44°40' W 063°38'0 0.0
2014-Sep-09 02:11N 44°40' W 063°38'0 0.0
2014-Sep-09 01:29N 44°40' W 063°38'0 0.0
2014-Sep-09 00:29N 44°40' W 063°38'0 0.0
2014-Sep-08 23:29N 44°40' W 063°38'0 0.0
2014-Sep-08 22:32N 44°40' W 063°38'0 0.0
2014-Sep-08 21:32N 44°40' W 063°38'0 0.4
2014-Sep-08 20:33N 44°40' W 063°38'6 5.9
2014-Sep-08 19:33N 44°36' W 063°32'1010.4
2014-Sep-08 18:33N 44°26' W 063°27'28716.8
2014-Sep-08 01:30N 41°01' W 068°01'1819.0
2014-Sep-08 00:33N 40°51' W 068°20'1818.3
2014-Sep-07 23:33N 40°42' W 068°41'1818.1
2014-Sep-07 22:34N 40°34' W 069°02'1817.6
2014-Sep-07 21:31N 40°26' W 069°24'1617.2
2014-Sep-07 20:33N 40°25' W 069°46'1817.6
2014-Sep-07 19:33N 40°25' W 070°09'1717.5
2014-Sep-07 18:33N 40°25' W 070°32'1817.7
2014-Sep-07 17:33N 40°25' W 070°55'1817.7
2014-Sep-07 16:33N 40°25' W 071°19'1717.3
2014-Sep-07 15:33N 40°24' W 071°41'1716.8
2014-Sep-07 14:33N 40°24' W 072°03'1716.7
2014-Sep-07 13:33N 40°23' W 072°25'1716.7
2014-Sep-07 12:33N 40°23' W 072°47'1717.1
2014-Sep-07 11:33N 40°22' W 073°10'1817.6
2014-Sep-07 10:33N 40°25' W 073°32'1615.6
2014-Sep-07 09:34N 40°28' W 073°52'1313.2
2014-Sep-07 08:33N 40°38' W 074°03'5 4.4
2014-Sep-07 07:31N 40°40' W 074°09'0 0.0
2014-Sep-07 05:07N 40°40' W 074°09'0 0.0
2014-Sep-07 04:25N 40°40' W 074°09'0 0.0
2014-Sep-07 03:25N 40°40' W 074°09'0 0.0
2014-Sep-07 02:31N 40°40' W 074°09'0 0.0
2014-Sep-07 01:31N 40°40' W 074°09'0 0.0
2014-Sep-07 00:07N 40°40' W 074°09'0 0.0
2014-Sep-06 23:31N 40°40' W 074°09'0 0.0
2014-Sep-06 22:19N 40°40' W 074°09'3 3.6
2014-Sep-06 21:34N 40°39' W 074°06'9 9.4
2014-Sep-06 20:33N 40°31' W 073°59'1413.5
2014-Sep-06 19:33N 40°21' W 073°47'1515.1
2014-Sep-06 18:33N 40°06' W 073°45'1515.1
2014-Sep-06 17:33N 39°51' W 073°43'1514.8
2014-Sep-06 16:33N 39°37' W 073°46'1615.6
2014-Sep-06 15:33N 39°22' W 073°54'1615.7
2014-Sep-06 14:33N 39°08' W 074°03'  
Track history (hours):
 
Tides and Currents Weather Stations Pressure Air Temp Water Temp Dewpoint Dewpoint Depression Visibility Wind Speed Wind Dir Waves Ship Positions

Atlantic Companion

Last reported at 2014-Sep-16 14:30 UTC. Time now 2014-Sep-16 17:32 UTC.
Position N 51°46' W 005°57'.

Length 292 m; beam 32.3 m; draft 11.6 m.

Type: Cargo ship. MMSI: 265142000.

Date/timePositionNaut miles runAvg speedWind from/ knotsBaromVisibWave heightAir tempDewpointWater temp
2014-Sep-16 14:30N 51°46' W 005°57'4615.8
2014-Sep-16 11:33N 52°29' W 005°31'8415.8
2014-Sep-16 06:14N 53°33' W 004°00'1217.7
2014-Sep-16 05:33N 53°33' W 003°40'1615.9
2014-Sep-16 04:33N 53°31' W 003°14'8 8.5
2014-Sep-16 03:33N 53°27' W 003°01'1 0.4
2014-Sep-16 02:08N 53°28' W 003°01'0 0.0
2014-Sep-16 01:14N 53°28' W 003°01'0 0.0
2014-Sep-16 00:32N 53°28' W 003°01'0 0.0
2014-Sep-15 23:32N 53°28' W 003°01'0 0.0
2014-Sep-15 22:32N 53°28' W 003°01'0 0.0
2014-Sep-15 21:20N 53°28' W 003°01'0 0.0
2014-Sep-15 20:26N 53°28' W 003°01'0 0.0
2014-Sep-15 19:11N 53°28' W 003°01'0 0.0
2014-Sep-15 18:26N 53°28' W 003°01'0 0.0
2014-Sep-15 17:26N 53°28' W 003°01'0 0.0
2014-Sep-15 16:08N 53°28' W 003°01'0 0.0
2014-Sep-15 15:32N 53°28' W 003°01'0 0.0
2014-Sep-15 14:33N 53°28' W 003°01'1 0.6
2014-Sep-15 13:33N 53°27' W 003°01'1 1.0
2014-Sep-15 12:33N 53°27' W 003°03'1010.4
2014-Sep-15 11:33N 53°31' W 003°19'1717.1
2014-Sep-15 10:33N 53°30' W 003°47'61 8.6
2014-Sep-15 03:31N 54°11' W 005°03'1414.2
2014-Sep-15 02:34N 54°24' W 005°09'1514.7
2014-Sep-15 01:34N 54°39' W 005°15'1515.5
2014-Sep-15 00:34N 54°51' W 005°30'1615.7
2014-Sep-14 23:33N 55°04' W 005°46'1616.4
2014-Sep-14 22:33N 55°18' W 006°02'1514.7
2014-Sep-14 21:34N 55°23' W 006°26'1414.4
2014-Sep-14 20:33N 55°27' W 006°51'21014.4
2014-Sep-14 06:00N 55°24' W 013°00'69016.4 110 / 151021.4 2.2 0.515.0 13.8
2014-Sep-12 12:00N 53°06' W 032°18'10116.8 360 / 81020.8 5.4 2.011.9 10.9
2014-Sep-12 06:00N 52°30' W 034°54'41217.2 310 / 111021.6 11.0 11.0
2014-Sep-11 06:00N 49°36' W 044°48'31317.4 220 / 161024.7 2.2 12.3 12.0
2014-Sep-10 12:00N 46°54' W 051°30'49217.3 160 / 81028.210.8 1.515.3 13.0
2014-Sep-09 07:33N 44°30' W 062°43'1817.1
2014-Sep-09 06:31N 44°25' W 063°07'1515.8
2014-Sep-09 05:34N 44°26' W 063°28'1413.7
2014-Sep-09 04:33N 44°39' W 063°34'3 3.0
2014-Sep-09 03:33N 44°40' W 063°38'0 0.0
2014-Sep-09 02:11N 44°40' W 063°38'0 0.0
2014-Sep-09 01:29N 44°40' W 063°38'0 0.0
2014-Sep-09 00:29N 44°40' W 063°38'0 0.0
2014-Sep-08 23:29N 44°40' W 063°38'0 0.0
2014-Sep-08 22:32N 44°40' W 063°38'0 0.0
2014-Sep-08 21:32N 44°40' W 063°38'0 0.4
2014-Sep-08 20:33N 44°40' W 063°38'6 5.9
2014-Sep-08 19:33N 44°36' W 063°32'1010.4
2014-Sep-08 18:33N 44°26' W 063°27'28716.8
2014-Sep-08 01:30N 41°01' W 068°01'1819.0
2014-Sep-08 00:33N 40°51' W 068°20'1818.3
2014-Sep-07 23:33N 40°42' W 068°41'1818.1
2014-Sep-07 22:34N 40°34' W 069°02'1817.6
2014-Sep-07 21:31N 40°26' W 069°24'1617.2
2014-Sep-07 20:33N 40°25' W 069°46'1817.6
2014-Sep-07 19:33N 40°25' W 070°09'1717.5
2014-Sep-07 18:33N 40°25' W 070°32'1817.7
2014-Sep-07 17:33N 40°25' W 070°55'1817.7
2014-Sep-07 16:33N 40°25' W 071°19'1717.3
2014-Sep-07 15:33N 40°24' W 071°41'1716.8
2014-Sep-07 14:33N 40°24' W 072°03'1716.7
2014-Sep-07 13:33N 40°23' W 072°25'1716.7
2014-Sep-07 12:33N 40°23' W 072°47'1717.1
2014-Sep-07 11:33N 40°22' W 073°10'1817.6
2014-Sep-07 10:33N 40°25' W 073°32'1615.6
2014-Sep-07 09:34N 40°28' W 073°52'1313.2
2014-Sep-07 08:33N 40°38' W 074°03'5 4.4
2014-Sep-07 07:31N 40°40' W 074°09'0 0.0
2014-Sep-07 05:07N 40°40' W 074°09'0 0.0
2014-Sep-07 04:25N 40°40' W 074°09'0 0.0
2014-Sep-07 03:25N 40°40' W 074°09'0 0.0
2014-Sep-07 02:31N 40°40' W 074°09'0 0.0
2014-Sep-07 01:31N 40°40' W 074°09'0 0.0
2014-Sep-07 00:07N 40°40' W 074°09'0 0.0
2014-Sep-06 23:31N 40°40' W 074°09'0 0.0
2014-Sep-06 22:19N 40°40' W 074°09'3 3.6
2014-Sep-06 21:34N 40°39' W 074°06'9 9.4
2014-Sep-06 20:33N 40°31' W 073°59'1413.5
2014-Sep-06 19:33N 40°21' W 073°47'1515.1
2014-Sep-06 18:33N 40°06' W 073°45'1515.1
2014-Sep-06 17:33N 39°51' W 073°43'1514.8
2014-Sep-06 16:33N 39°37' W 073°46'1615.6
2014-Sep-06 15:33N 39°22' W 073°54'1615.7
2014-Sep-06 14:33N 39°08' W 074°03'  

Dump ship's entire track history